Time;durP1;ratioP1;P1;durP2;ratioP2;P2;SDS_P1;SDS_P2;PMS_P1;PMS_P2;Temp;Humidity;BMP_temperature;BMP_pressure;BME280_temperature;BME280_humidity;BME280_pressure;Samples;Min_cycle;Max_cycle;Signal;HPM_P1;HPM_P2
2023/11/04 00:02:23;;;;;;;5.10;1.70;;;;;;;13.94;100.00;91649.50;5070073;28;20053;-81
2023/11/04 00:04:51;;;;;;;3.60;1.20;;;;;;;13.95;100.00;91638.91;5069779;28;20408;-80
2023/11/04 00:07:18;;;;;;;4.07;1.30;;;;;;;13.97;100.00;91633.47;5071021;28;20183;-80
2023/11/04 00:09:45;;;;;;;4.47;1.42;;;;;;;13.94;100.00;91628.84;5071543;28;20557;-80
2023/11/04 00:12:12;;;;;;;4.90;1.17;;;;;;;13.91;100.00;91617.25;5069755;28;20051;-79
2023/11/04 00:14:40;;;;;;;2.90;1.02;;;;;;;14.00;100.00;91630.34;5072291;28;20440;-80
2023/11/04 00:17:08;;;;;;;3.10;1.30;;;;;;;14.00;100.00;91622.63;5071666;28;20056;-80
2023/11/04 00:19:35;;;;;;;3.40;1.00;;;;;;;14.00;100.00;91625.97;5069723;28;20056;-80
2023/11/04 00:22:02;;;;;;;5.13;1.30;;;;;;;13.99;100.00;91632.16;5069693;28;20044;-81
2023/11/04 00:24:29;;;;;;;3.85;1.25;;;;;;;13.97;100.00;91631.66;5071947;28;20056;-81
2023/11/04 00:26:56;;;;;;;3.30;1.00;;;;;;;14.02;100.00;91641.19;5070593;28;20045;-80
2023/11/04 00:29:22;;;;;;;3.97;1.17;;;;;;;13.87;100.00;91613.66;5069176;28;20134;-81
2023/11/04 00:31:49;;;;;;;4.18;1.13;;;;;;;14.03;100.00;91622.09;5069117;28;20057;-82
2023/11/04 00:34:18;;;;;;;3.33;1.15;;;;;;;14.07;100.00;91617.16;5068965;28;20044;-82
2023/11/04 00:36:44;;;;;;;4.50;1.60;;;;;;;14.12;100.00;91622.28;5069572;28;20048;-80
2023/11/04 00:39:13;;;;;;;4.13;1.23;;;;;;;13.80;100.00;91566.75;5071057;28;20056;-80
2023/11/04 00:41:40;;;;;;;3.42;1.38;;;;;;;14.15;100.00;91619.13;5068917;28;20408;-80
2023/11/04 00:44:07;;;;;;;3.90;1.27;;;;;;;14.15;100.00;91611.41;5071579;28;20056;-80
2023/11/04 00:46:34;;;;;;;4.10;1.33;;;;;;;14.21;100.00;91612.13;5069061;28;20048;-81
2023/11/04 00:49:03;;;;;;;4.40;1.10;;;;;;;14.24;100.00;91614.16;5069331;28;20040;-80
2023/11/04 00:51:31;;;;;;;4.78;2.00;;;;;;;14.25;100.00;91605.38;5069490;28;20440;-80
2023/11/04 00:53:58;;;;;;;6.13;1.45;;;;;;;14.26;100.00;91597.34;5073240;28;20084;-80
2023/11/04 00:56:25;;;;;;;3.63;1.20;;;;;;;14.29;100.00;91598.63;5068853;28;20060;-80
2023/11/04 00:58:52;;;;;;;3.78;1.17;;;;;;;14.29;100.00;91591.66;5068947;28;20051;-80
2023/11/04 01:01:19;;;;;;;4.10;1.08;;;;;;;14.26;100.00;91581.84;5069049;28;20063;-79
2023/11/04 01:03:45;;;;;;;3.92;0.90;;;;;;;14.22;100.00;91578.31;5072104;28;20049;-80
2023/11/04 01:06:12;;;;;;;3.83;1.05;;;;;;;14.21;100.00;91587.06;5068177;28;20480;-79
2023/11/04 01:08:40;;;;;;;2.47;1.02;;;;;;;14.20;100.00;91575.19;5068222;28;20048;-80
2023/11/04 01:11:08;;;;;;;2.63;1.10;;;;;;;14.25;100.00;91564.03;5068471;28;20071;-79
2023/11/04 01:13:35;;;;;;;4.00;1.17;;;;;;;14.28;100.00;91564.28;5069418;28;20400;-79
2023/11/04 01:16:02;;;;;;;3.75;1.17;;;;;;;14.19;100.00;91557.38;5070888;28;20098;-79
2023/11/04 01:18:29;;;;;;;3.75;1.15;;;;;;;14.29;100.00;91575.38;5068342;28;20063;-79
2023/11/04 01:20:56;;;;;;;3.08;1.15;;;;;;;14.35;100.00;91592.38;5068332;28;20052;-79
2023/11/04 01:23:23;;;;;;;4.97;1.40;;;;;;;14.40;100.00;91591.56;5067672;28;20060;-78
2023/11/04 01:25:51;;;;;;;4.63;1.20;;;;;;;14.38;100.00;91589.25;5067618;28;20428;-79
2023/11/04 01:28:18;;;;;;;4.00;1.30;;;;;;;14.43;100.00;91594.38;5066879;28;20044;-79
2023/11/04 01:30:45;;;;;;;5.55;1.17;;;;;;;14.43;100.00;91611.66;5068111;28;20051;-80
2023/11/04 01:33:11;;;;;;;6.20;1.75;;;;;;;14.35;100.00;91628.53;5065489;28;20048;-80
2023/11/04 01:35:38;;;;;;;5.82;1.23;;;;;;;14.50;100.00;91676.72;5070896;28;20045;-79
2023/11/04 01:38:05;;;;;;;18.05;7.05;;;;;;;14.43;100.00;91694.34;5068532;28;20749;-81
2023/11/04 01:40:32;;;;;;;6.65;2.40;;;;;;;14.16;100.00;91700.72;5068961;28;20052;-79
2023/11/04 01:43:00;;;;;;;5.97;1.80;;;;;;;14.02;100.00;91701.34;5067776;28;20549;-82
2023/11/04 01:45:27;;;;;;;6.60;1.60;;;;;;;13.90;100.00;91703.47;5071772;28;20051;-81
2023/11/04 01:47:54;;;;;;;4.68;1.52;;;;;;;13.85;100.00;91700.94;5069914;28;20044;-82
2023/11/04 01:50:21;;;;;;;7.22;1.95;;;;;;;13.87;100.00;91699.63;5067007;28;20056;-81
2023/11/04 01:52:48;;;;;;;9.07;3.13;;;;;;;13.86;100.00;91697.31;5070500;28;20040;-80
2023/11/04 01:55:15;;;;;;;11.55;4.05;;;;;;;13.87;100.00;91693.69;5066701;28;20048;-80
2023/11/04 01:57:43;;;;;;;4.22;1.63;;;;;;;13.75;100.00;91687.03;5068268;28;20052;-80
2023/11/04 02:00:12;;;;;;;4.20;0.80;;;;;;;13.80;100.00;91678.47;5070753;28;20054;-83
2023/11/04 02:02:40;;;;;;;3.08;0.90;;;;;;;13.69;100.00;91671.84;5068664;28;20497;-82
2023/11/04 02:05:07;;;;;;;4.97;1.00;;;;;;;13.46;100.00;91664.47;5067767;28;20056;-81
2023/11/04 02:07:34;;;;;;;1.90;0.70;;;;;;;13.69;100.00;91689.91;5068354;28;20420;-80
2023/11/04 02:10:01;;;;;;;3.42;0.88;;;;;;;13.51;100.00;91681.72;5071093;28;20052;-80
2023/11/04 02:12:28;;;;;;;2.45;0.70;;;;;;;13.59;100.00;91686.34;5069701;28;20427;-81
2023/11/04 02:14:54;;;;;;;4.38;0.80;;;;;;;13.66;100.00;91670.56;5067762;28;20409;-81
2023/11/04 02:17:23;;;;;;;5.28;0.85;;;;;;;13.69;100.00;91661.50;5067412;28;20060;-83
2023/11/04 02:19:50;;;;;;;3.88;1.45;;;;;;;13.74;100.00;91664.06;5070508;28;20045;-81
2023/11/04 02:22:19;;;;;;;3.50;1.10;;;;;;;13.70;100.00;91658.69;5066865;28;20044;-83
2023/11/04 02:24:46;;;;;;;3.88;1.00;;;;;;;13.63;100.00;91653.03;5070568;28;20757;-82
2023/11/04 02:27:12;;;;;;;2.63;0.75;;;;;;;13.69;100.00;91649.41;5067226;28;20055;-81
2023/11/04 02:29:39;;;;;;;3.28;0.70;;;;;;;13.59;100.00;91668.28;5069212;28;20045;-81
2023/11/04 02:32:07;;;;;;;2.75;0.75;;;;;;;13.56;100.00;91676.56;5070842;28;20075;-81
2023/11/04 02:34:34;;;;;;;4.63;1.10;;;;;;;13.59;100.00;91673.44;5067234;28;20090;-80
2023/11/04 02:37:01;;;;;;;3.13;1.08;;;;;;;13.61;100.00;91676.53;5067743;28;20051;-80
2023/11/04 02:39:29;;;;;;;4.32;0.95;;;;;;;13.61;100.00;91678.34;5070106;28;20506;-81
2023/11/04 02:41:56;;;;;;;2.20;1.05;;;;;;;13.57;100.00;91647.13;5069442;28;20055;-80
2023/11/04 02:44:23;;;;;;;2.67;1.05;;;;;;;13.54;100.00;91629.63;5067116;28;20048;-81
2023/11/04 02:46:50;;;;;;;3.90;0.70;;;;;;;13.59;100.00;91641.72;5069350;28;20051;-82
2023/11/04 02:49:16;;;;;;;3.05;0.80;;;;;;;13.62;100.00;91639.38;5067263;28;21360;-81
2023/11/04 02:51:43;;;;;;;2.08;0.60;;;;;;;13.66;100.00;91644.75;5063488;28;20044;-81
2023/11/04 02:54:10;;;;;;;1.58;0.60;;;;;;;13.60;100.00;91643.25;5070244;28;20055;-81
2023/11/04 02:56:39;;;;;;;2.70;0.70;;;;;;;13.63;100.00;91640.94;5067660;28;20052;-80
2023/11/04 02:59:05;;;;;;;2.53;1.00;;;;;;;13.66;100.00;91629.28;5066885;28;20731;-81
2023/11/04 03:01:32;;;;;;;1.33;0.60;;;;;;;13.67;100.00;91627.47;5066724;28;20052;-80
2023/11/04 03:04:02;;;;;;;2.55;0.50;;;;;;;13.73;100.00;91629.00;5070021;28;20121;-80
2023/11/04 03:06:28;;;;;;;4.15;0.70;;;;;;;13.71;100.00;91620.75;5068748;28;20056;-80
2023/11/04 03:08:55;;;;;;;1.73;0.50;;;;;;;13.69;100.00;91608.13;5067070;28;20048;-80
2023/11/04 03:11:23;;;;;;;2.00;0.85;;;;;;;13.62;100.00;91597.34;5067916;28;20543;-80
2023/11/04 03:13:51;;;;;;;1.65;0.82;;;;;;;13.69;100.00;91590.06;5066835;28;20053;-79
2023/11/04 03:16:19;;;;;;;3.42;0.73;;;;;;;13.67;100.00;91591.34;5068859;28;20044;-79
2023/11/04 03:18:46;;;;;;;1.73;0.65;;;;;;;13.68;100.00;91587.72;5066883;28;20053;-80
2023/11/04 03:21:13;;;;;;;4.20;0.80;;;;;;;13.72;100.00;91593.91;5069372;28;20049;-79
2023/11/04 03:23:48;;;;;;;3.20;0.70;;;;;;;13.60;100.00;91583.91;5067146;28;20052;-80
2023/11/04 03:26:17;;;;;;;1.88;0.70;;;;;;;13.67;100.00;91584.41;5066902;28;20048;-79
2023/11/04 03:28:44;;;;;;;4.03;1.10;;;;;;;13.74;100.00;91587.44;5068267;28;20052;-78
2023/11/04 03:31:12;;;;;;;2.78;0.90;;;;;;;13.78;100.00;91572.19;5067550;28;20059;-77
2023/11/04 03:33:39;;;;;;;1.90;0.77;;;;;;;13.80;100.00;91556.44;5066337;28;20051;-78
2023/11/04 03:36:08;;;;;;;2.33;0.65;;;;;;;13.83;100.00;91550.72;5071522;28;20098;-77
2023/11/04 03:38:34;;;;;;;2.60;0.90;;;;;;;13.84;100.00;91540.13;5065984;28;20044;-78
2023/11/04 03:41:02;;;;;;;3.88;1.13;;;;;;;13.87;100.00;91531.88;5066269;28;20056;-78
2023/11/04 03:43:29;;;;;;;3.20;0.73;;;;;;;13.92;100.00;91538.78;5067098;28;20076;-78
2023/11/04 03:45:56;;;;;;;3.58;0.88;;;;;;;13.92;100.00;91531.03;5069553;28;20048;-78
2023/11/04 03:48:25;;;;;;;2.22;0.82;;;;;;;13.91;100.00;91526.91;5067655;28;20048;-78
2023/11/04 03:50:52;;;;;;;4.85;1.00;;;;;;;13.87;100.00;91515.59;5069049;28;20048;-77
2023/11/04 03:53:18;;;;;;;2.15;1.00;;;;;;;13.95;100.00;91522.75;5067306;28;20057;-77
2023/11/04 03:55:46;;;;;;;2.13;1.00;;;;;;;13.88;100.00;91533.41;5066589;28;20044;-78
2023/11/04 03:58:13;;;;;;;8.68;1.33;;;;;;;13.94;100.00;91541.09;5067899;28;20082;-77
2023/11/04 04:00:40;;;;;;;1.58;0.70;;;;;;;13.90;100.00;91533.13;5070245;28;20056;-77
2023/11/04 04:03:07;;;;;;;3.22;0.80;;;;;;;13.85;100.00;91541.66;5066272;28;20052;-77
2023/11/04 04:05:35;;;;;;;3.30;0.90;;;;;;;13.83;100.00;91541.19;5066465;28;20045;-77
2023/11/04 04:08:02;;;;;;;4.32;1.27;;;;;;;13.82;100.00;91531.91;5067599;28;20053;-79
2023/11/04 04:10:29;;;;;;;4.55;1.50;;;;;;;13.80;100.00;91541.72;5053102;28;20347;-78
2023/11/04 04:12:57;;;;;;;4.07;1.73;;;;;;;13.84;100.00;91544.53;5065781;28;20526;-79
2023/11/04 04:15:24;;;;;;;4.47;2.40;;;;;;;13.80;100.00;91559.78;5071303;28;20136;-78
2023/11/04 04:17:50;;;;;;;4.43;2.20;;;;;;;13.80;100.00;91575.25;5069275;28;20097;-77
2023/11/04 04:20:17;;;;;;;5.00;1.55;;;;;;;13.81;100.00;91581.19;5069585;28;20051;-78
2023/11/04 04:22:46;;;;;;;5.75;1.58;;;;;;;13.63;100.00;91598.88;5068565;28;20036;-79
2023/11/04 04:25:13;;;;;;;5.35;2.10;;;;;;;13.57;100.00;91643.78;5070208;28;20053;-81
2023/11/04 04:27:40;;;;;;;4.88;1.80;;;;;;;13.47;100.00;91642.06;5069721;28;20134;-81
2023/11/04 04:30:08;;;;;;;7.43;2.47;;;;;;;13.02;100.00;91619.53;5073286;28;20055;-78
2023/11/04 04:32:35;;;;;;;11.63;3.58;;;;;;;12.97;100.00;91632.44;5068711;28;20504;-79
2023/11/04 04:35:02;;;;;;;4.72;1.70;;;;;;;12.88;100.00;91645.09;5073373;28;20511;-78
2023/11/04 04:37:29;;;;;;;5.47;1.00;;;;;;;12.73;100.00;91653.59;5069443;28;20080;-77
2023/11/04 04:39:57;;;;;;;4.82;0.80;;;;;;;12.60;100.00;91656.72;5070670;28;20068;-76
2023/11/04 04:42:24;;;;;;;2.45;0.50;;;;;;;12.47;100.00;91640.00;5072997;28;20052;-77
2023/11/04 04:44:51;;;;;;;3.17;0.55;;;;;;;12.27;100.00;91615.84;5069490;28;20075;-77
2023/11/04 04:47:18;;;;;;;2.38;0.40;;;;;;;12.45;100.00;91653.13;5069783;28;20048;-78
2023/11/04 04:49:45;;;;;;;2.97;0.57;;;;;;;12.42;100.00;91666.53;5070504;28;20451;-78
2023/11/04 04:52:12;;;;;;;1.75;0.32;;;;;;;12.38;100.00;91671.44;5068971;28;20055;-78
2023/11/04 04:54:39;;;;;;;2.35;0.60;;;;;;;12.24;100.00;91634.34;5070430;28;20052;-78
2023/11/04 04:57:07;;;;;;;2.25;0.43;;;;;;;12.33;100.00;91639.75;5072823;28;20044;-79
2023/11/04 04:59:34;;;;;;;1.90;0.43;;;;;;;12.33;100.00;91645.69;5068968;28;20060;-80
2023/11/04 05:02:03;;;;;;;1.50;0.50;;;;;;;12.23;100.00;91641.28;5070445;28;20051;-78
2023/11/04 05:04:30;;;;;;;1.45;0.47;;;;;;;12.22;100.00;91657.03;5070134;28;20044;-80
2023/11/04 05:06:57;;;;;;;2.92;0.60;;;;;;;12.10;100.00;91652.13;5070288;28;20136;-79
2023/11/04 05:09:24;;;;;;;2.17;0.50;;;;;;;12.15;100.00;91688.16;5068716;28;20087;-78
2023/11/04 05:11:52;;;;;;;0.57;0.30;;;;;;;12.10;100.00;91695.88;5068626;28;20138;-80
2023/11/04 05:14:20;;;;;;;1.48;0.38;;;;;;;12.15;100.00;91699.25;5069285;28;20052;-79
2023/11/04 05:16:47;;;;;;;1.77;0.40;;;;;;;12.19;100.00;91673.75;5065073;28;20072;-79
2023/11/04 05:19:14;;;;;;;1.98;0.82;;;;;;;12.22;100.00;91652.63;5069877;28;20481;-79
2023/11/04 05:21:41;;;;;;;2.65;0.80;;;;;;;12.23;100.00;91666.28;5068419;28;20423;-80
2023/11/04 05:24:08;;;;;;;2.90;0.75;;;;;;;12.26;100.00;91676.06;5068774;28;20165;-80
2023/11/04 05:26:39;;;;;;;1.88;0.40;;;;;;;12.19;100.00;91637.72;5068754;28;20451;-82
2023/11/04 05:29:06;;;;;;;2.65;0.50;;;;;;;12.31;100.00;91628.97;5068669;28;20059;-89
2023/11/04 05:31:34;;;;;;;1.65;0.80;;;;;;;12.22;100.00;91629.47;5069109;28;20056;-83
2023/11/04 05:34:01;;;;;;;4.57;1.90;;;;;;;12.21;100.00;91619.44;5067887;28;20041;-85
2023/11/04 05:36:28;;;;;;;4.38;0.60;;;;;;;12.25;100.00;91625.59;5071423;28;20044;-83
2023/11/04 05:38:55;;;;;;;2.17;0.63;;;;;;;12.21;100.00;91584.16;5068416;28;20048;-85
2023/11/04 05:41:21;;;;;;;1.70;0.55;;;;;;;12.21;100.00;91568.72;5067623;28;20060;-83
2023/11/04 05:43:48;;;;;;;1.08;0.40;;;;;;;12.21;100.00;91557.66;5067260;28;20049;-81
2023/11/04 05:46:15;;;;;;;1.48;0.50;;;;;;;12.12;100.00;91555.59;5069352;28;20053;-81
2023/11/04 05:48:43;;;;;;;4.47;0.77;;;;;;;12.23;100.00;91592.38;5066713;28;20051;-81
2023/11/04 05:51:11;;;;;;;2.97;0.50;;;;;;;12.34;100.00;91605.25;5066224;28;20056;-81
2023/11/04 05:53:38;;;;;;;2.33;0.70;;;;;;;12.24;100.00;91586.22;5069438;28;20045;-82
2023/11/04 05:56:07;;;;;;;2.15;0.77;;;;;;;12.21;100.00;91570.53;5070228;28;20044;-83
2023/11/04 05:58:34;;;;;;;2.30;1.10;;;;;;;12.27;100.00;91610.69;5065394;28;20055;-82
2023/11/04 06:01:01;;;;;;;2.50;1.00;;;;;;;12.14;100.00;91638.47;5071738;28;20041;-82
2023/11/04 06:03:28;;;;;;;2.80;0.75;;;;;;;12.21;100.00;91681.22;5070377;28;20066;-82
2023/11/04 06:05:57;;;;;;;2.35;0.90;;;;;;;12.07;100.00;91674.00;5067243;28;20098;-82
2023/11/04 06:08:24;;;;;;;6.50;1.50;;;;;;;12.12;100.00;91637.19;5066506;28;20057;-83
2023/11/04 06:10:51;;;;;;;2.67;1.27;;;;;;;12.20;100.00;91646.19;5069369;28;20056;-81
2023/11/04 06:13:18;;;;;;;3.22;1.48;;;;;;;12.02;100.00;91607.84;5067170;28;20048;-81
2023/11/04 06:15:45;;;;;;;4.07;1.30;;;;;;;12.09;100.00;91575.94;5067791;28;20042;-82
2023/11/04 06:18:12;;;;;;;2.33;1.10;;;;;;;12.20;100.00;91608.38;5070981;28;20420;-81
2023/11/04 06:20:38;;;;;;;7.60;3.75;;;;;;;12.18;100.00;91569.25;5069110;28;20500;-81
2023/11/04 06:23:08;;;;;;;26.20;10.00;;;;;;;12.35;100.00;91574.09;5067047;28;20067;-82
2023/11/04 06:25:35;;;;;;;21.27;10.20;;;;;;;12.42;100.00;91568.69;5066835;28;20049;-82
2023/11/04 06:28:02;;;;;;;19.75;9.18;;;;;;;12.40;100.00;91571.50;5068169;28;20055;-79
2023/11/04 06:30:29;;;;;;;12.88;7.47;;;;;;;12.46;100.00;91612.72;5070259;28;20109;-79
2023/11/04 06:32:56;;;;;;;12.25;6.28;;;;;;;12.45;100.00;91617.06;5066505;28;20052;-79
2023/11/04 06:35:24;;;;;;;4.93;2.90;;;;;;;12.33;100.00;91598.56;5065958;28;20059;-80
2023/11/04 06:37:51;;;;;;;4.80;2.65;;;;;;;12.28;100.00;91581.31;5061854;28;20154;-80
2023/11/04 06:40:19;;;;;;;4.75;2.70;;;;;;;12.26;100.00;91576.44;5061957;28;20048;-79
2023/11/04 06:42:46;;;;;;;4.25;2.38;;;;;;;12.31;100.00;91562.78;5062644;28;20063;-80
2023/11/04 06:45:13;;;;;;;3.67;1.50;;;;;;;12.24;100.00;91532.16;5063478;28;20076;-80
2023/11/04 06:47:40;;;;;;;1.92;0.90;;;;;;;12.21;100.00;91508.75;5063035;28;20053;-79
2023/11/04 06:50:08;;;;;;;2.05;0.80;;;;;;;12.20;100.00;91514.91;5062054;28;20059;-81
2023/11/04 06:52:35;;;;;;;2.33;0.82;;;;;;;12.14;100.00;91522.66;5061513;28;20110;-83
2023/11/04 06:55:02;;;;;;;2.45;0.60;;;;;;;12.01;100.00;91497.44;5069012;28;20060;-82
2023/11/04 06:57:31;;;;;;;2.58;0.65;;;;;;;12.14;100.00;91522.66;5065708;28;20083;-83
2023/11/04 06:59:58;;;;;;;1.23;0.50;;;;;;;12.07;100.00;91493.09;5066400;28;20090;-82
2023/11/04 07:02:25;;;;;;;2.50;0.65;;;;;;;12.25;100.00;91538.84;5065295;28;20060;-82
2023/11/04 07:04:52;;;;;;;2.85;0.50;;;;;;;12.23;100.00;91517.72;5066363;28;20044;-81
2023/11/04 07:07:18;;;;;;;3.65;1.10;;;;;;;12.21;100.00;91516.47;5067744;28;20520;-80
2023/11/04 07:09:45;;;;;;;4.25;0.90;;;;;;;12.08;100.00;91520.38;5064923;28;20055;-80
2023/11/04 07:12:12;;;;;;;5.32;1.52;;;;;;;12.26;100.00;91550.69;5065973;28;20055;-80
2023/11/04 07:14:40;;;;;;;6.15;1.80;;;;;;;12.28;100.00;91592.38;5065602;28;20040;-80
2023/11/04 07:17:08;;;;;;;6.10;1.80;;;;;;;12.22;100.00;91590.09;5064816;28;20060;-80
2023/11/04 07:19:34;;;;;;;4.90;2.13;;;;;;;12.27;100.00;91650.06;5066962;28;20048;-80
2023/11/04 07:22:01;;;;;;;4.43;2.53;;;;;;;12.28;100.00;91671.44;5069532;28;20044;-79
2023/11/04 07:24:28;;;;;;;4.60;3.00;;;;;;;12.33;100.00;91668.06;5067779;28;20044;-80
2023/11/04 07:26:55;;;;;;;4.93;2.08;;;;;;;12.37;100.00;91667.28;5070526;28;20075;-80
2023/11/04 07:29:22;;;;;;;5.95;2.80;;;;;;;12.38;100.00;91655.19;5067489;28;20052;-81
2023/11/04 07:31:50;;;;;;;6.57;3.92;;;;;;;12.31;100.00;91662.44;5067183;28;20073;-81
2023/11/04 07:34:17;;;;;;;38.65;21.33;;;;;;;12.13;100.00;91652.38;5065690;28;20060;-81
2023/11/04 07:36:44;;;;;;;13.93;7.05;;;;;;;12.08;100.00;91657.53;5065807;28;20049;-81
2023/11/04 07:39:11;;;;;;;9.18;4.70;;;;;;;11.96;100.00;91652.59;5065625;28;20048;-80
2023/11/04 07:41:41;;;;;;;7.05;2.72;;;;;;;11.89;100.00;91659.78;5069013;28;20063;-80
2023/11/04 07:44:08;;;;;;;5.28;3.15;;;;;;;11.86;100.00;91661.06;5062125;28;20099;-80
2023/11/04 07:46:36;;;;;;;8.75;4.50;;;;;;;11.87;100.00;91669.56;5063866;28;20131;-80
2023/11/04 07:49:04;;;;;;;7.50;3.30;;;;;;;11.98;100.00;91675.50;5061973;28;20136;-81
2023/11/04 07:51:31;;;;;;;5.40;3.15;;;;;;;12.06;100.00;91658.81;5066082;28;20052;-80
2023/11/04 07:53:58;;;;;;;5.60;2.58;;;;;;;12.05;100.00;91668.34;5070306;28;20049;-80
2023/11/04 07:56:26;;;;;;;4.53;2.35;;;;;;;11.91;100.00;91632.03;5071876;28;20052;-80
2023/11/04 07:58:53;;;;;;;2.08;0.88;;;;;;;12.13;100.00;91660.09;5069037;28;20048;-79
2023/11/04 08:01:21;;;;;;;2.53;0.80;;;;;;;11.88;100.00;91635.88;5068955;28;20044;-79
2023/11/04 08:03:49;;;;;;;1.92;0.80;;;;;;;12.01;100.00;91673.19;5066354;28;20110;-80
2023/11/04 08:06:18;;;;;;;2.55;0.70;;;;;;;11.95;100.00;91692.22;5069365;28;20056;-81
2023/11/04 08:08:45;;;;;;;1.80;1.00;;;;;;;11.96;100.00;91685.28;5068659;28;20046;-80
2023/11/04 08:11:12;;;;;;;5.15;3.72;;;;;;;12.02;100.00;91681.69;5069500;28;20493;-79
2023/11/04 08:13:39;;;;;;;15.40;9.48;;;;;;;11.90;100.00;91666.50;5069530;28;20051;-79
2023/11/04 08:16:07;;;;;;;14.20;8.77;;;;;;;11.95;100.00;91666.47;5068830;28;20173;-81
2023/11/04 08:18:34;;;;;;;10.20;6.47;;;;;;;11.98;100.00;91642.03;5068133;28;20053;-82
2023/11/04 08:21:02;;;;;;;3.58;1.33;;;;;;;11.81;100.00;91603.72;5070831;28;20404;-80
2023/11/04 08:23:30;;;;;;;2.15;0.93;;;;;;;11.61;100.00;91541.72;5068657;28;20056;-80
2023/11/04 08:25:57;;;;;;;1.60;0.65;;;;;;;11.36;100.00;91503.91;5065796;28;20045;-79
2023/11/04 08:28:24;;;;;;;1.92;0.75;;;;;;;11.17;100.00;91476.16;5066483;28;20045;-80
2023/11/04 08:30:52;;;;;;;5.07;1.10;;;;;;;11.25;100.00;91505.69;5069437;28;20076;-79
2023/11/04 08:33:19;;;;;;;1.95;0.50;;;;;;;11.40;100.00;91502.38;5068878;28;20048;-80
2023/11/04 08:35:46;;;;;;;2.15;0.75;;;;;;;11.55;100.00;91500.81;5071605;28;20041;-79
2023/11/04 08:38:13;;;;;;;2.40;0.82;;;;;;;11.69;100.00;91498.50;5069308;28;20048;-79
2023/11/04 08:40:41;;;;;;;2.60;1.13;;;;;;;11.71;100.00;91471.50;5069620;28;20459;-79
2023/11/04 08:43:08;;;;;;;2.72;1.08;;;;;;;11.67;100.00;91467.88;5069233;28;20052;-80
2023/11/04 08:45:35;;;;;;;3.30;2.15;;;;;;;11.65;100.00;91467.38;5069240;28;20130;-79
2023/11/04 08:48:02;;;;;;;2.97;1.75;;;;;;;11.81;100.00;91488.69;5071469;28;20044;-79
2023/11/04 08:50:29;;;;;;;2.90;1.80;;;;;;;11.95;100.00;91498.47;5069658;28;20044;-79
2023/11/04 08:52:55;;;;;;;2.53;1.42;;;;;;;12.09;100.00;91507.22;5068542;28;20052;-79
2023/11/04 08:55:22;;;;;;;2.13;1.20;;;;;;;12.21;100.00;91512.09;5069444;28;20037;-79
2023/11/04 08:57:51;;;;;;;3.05;1.10;;;;;;;12.23;100.00;91506.69;5074031;28;20044;-79
2023/11/04 09:00:18;;;;;;;3.58;1.42;;;;;;;12.21;100.00;91511.34;5064842;28;20052;-79
2023/11/04 09:02:45;;;;;;;5.72;3.03;;;;;;;12.19;100.00;91498.72;5072180;28;20469;-79
2023/11/04 09:05:12;;;;;;;6.55;2.67;;;;;;;12.22;100.00;91493.03;5068546;28;20052;-79
2023/11/04 09:07:39;;;;;;;4.57;2.47;;;;;;;12.22;100.00;91487.88;5068233;28;20053;-79
2023/11/04 09:10:06;;;;;;;4.65;2.97;;;;;;;12.28;100.00;91483.50;5068370;28;20051;-79
2023/11/04 09:12:32;;;;;;;7.25;3.65;;;;;;;12.31;100.00;91471.91;5069051;28;20044;-78
2023/11/04 09:15:01;;;;;;;14.27;8.25;;;;;;;12.34;100.00;91473.94;5070247;28;20052;-78
2023/11/04 09:17:27;;;;;;;11.60;6.93;;;;;;;12.24;100.00;91451.59;5068676;28;20063;-78
2023/11/04 09:19:54;;;;;;;6.47;4.18;;;;;;;12.46;100.00;91453.84;5068778;28;20051;-78
2023/11/04 09:22:21;;;;;;;5.65;3.53;;;;;;;12.53;100.00;91443.22;5068221;28;20057;-78
2023/11/04 09:24:48;;;;;;;4.28;2.85;;;;;;;12.48;100.00;91441.44;5068598;28;20098;-79
2023/11/04 09:27:15;;;;;;;4.18;2.45;;;;;;;12.57;100.00;91428.78;5069607;28;20052;-79
2023/11/04 09:29:41;;;;;;;4.40;2.90;;;;;;;12.49;100.00;91419.81;5070104;28;20044;-79
2023/11/04 09:32:11;;;;;;;3.88;2.40;;;;;;;12.62;100.00;91440.88;5067351;28;20049;-79
2023/11/04 09:34:38;;;;;;;2.80;1.80;;;;;;;12.53;100.00;91444.00;5068492;28;20041;-80
2023/11/04 09:37:05;;;;;;;3.90;1.23;;;;;;;12.50;100.00;91454.81;5068962;28;20519;-79
2023/11/04 09:39:32;;;;;;;2.65;1.15;;;;;;;12.54;100.00;91470.50;5069243;28;20496;-78
2023/11/04 09:41:59;;;;;;;5.53;2.40;;;;;;;12.59;100.00;91459.44;5068383;28;20381;-78
2023/11/04 09:44:26;;;;;;;6.93;3.90;;;;;;;12.62;100.00;91472.56;5067942;28;20587;-78
2023/11/04 09:46:53;;;;;;;12.20;6.35;;;;;;;12.61;100.00;91471.00;5070464;28;20072;-77
2023/11/04 09:49:21;;;;;;;10.90;5.38;;;;;;;12.66;100.00;91489.03;5068565;28;20052;-77
2023/11/04 09:51:49;;;;;;;11.40;6.90;;;;;;;12.72;100.00;91492.34;5061954;28;20052;-78
2023/11/04 09:54:18;;;;;;;10.93;5.72;;;;;;;12.66;100.00;91483.88;5063420;28;20121;-78
2023/11/04 09:56:46;;;;;;;6.70;3.00;;;;;;;12.63;100.00;91468.19;5062235;28;20063;-78
2023/11/04 09:59:13;;;;;;;9.38;3.17;;;;;;;12.62;100.00;91479.50;5062657;28;20558;-79
2023/11/04 10:01:41;;;;;;;7.03;3.53;;;;;;;12.63;100.00;91489.53;5061897;28;20059;-78
2023/11/04 10:04:08;;;;;;;6.97;3.70;;;;;;;12.58;100.00;91483.66;5062530;28;20489;-78
2023/11/04 10:06:36;;;;;;;7.43;3.30;;;;;;;12.53;100.00;91480.06;5066173;28;20049;-78
2023/11/04 10:09:03;;;;;;;6.60;4.20;;;;;;;12.55;100.00;91472.84;5067390;28;20071;-78
2023/11/04 10:11:32;;;;;;;7.78;3.60;;;;;;;12.56;100.00;91440.13;5065615;28;20055;-78
2023/11/04 10:13:59;;;;;;;7.10;3.22;;;;;;;12.39;100.00;91409.56;5067438;28;20049;-79
2023/11/04 10:16:28;;;;;;;5.10;1.85;;;;;;;12.64;100.00;91433.66;5066506;28;20052;-78
2023/11/04 10:18:56;;;;;;;5.32;1.83;;;;;;;12.73;100.00;91420.97;5065397;28;20090;-78
2023/11/04 10:21:23;;;;;;;2.65;1.13;;;;;;;12.65;100.00;91402.47;5066945;28;20052;-78
2023/11/04 10:23:51;;;;;;;3.10;1.23;;;;;;;12.63;100.00;91398.63;5067922;28;20048;-78
2023/11/04 10:26:29;;;;;;;2.10;0.65;;;;;;;12.43;100.00;91367.59;5067192;28;20063;-78
2023/11/04 10:28:56;;;;;;;3.38;1.40;;;;;;;12.58;100.00;91424.41;5065258;28;20056;-78
2023/11/04 10:31:24;;;;;;;2.28;0.60;;;;;;;12.47;100.00;91429.63;5067897;28;20055;-78
2023/11/04 10:33:52;;;;;;;21.40;12.00;;;;;;;12.49;100.00;91427.53;5060762;28;20056;-78
2023/11/04 10:36:19;;;;;;;15.18;6.95;;;;;;;12.59;100.00;91421.56;5066614;28;20052;-78
2023/11/04 10:38:55;;;;;;;4.43;2.13;;;;;;;12.58;100.00;91442.44;5066845;28;20468;-78
2023/11/04 10:41:22;;;;;;;;;;;;;;;12.48;100.00;91450.97;5070681;28;20044;-79
2023/11/04 10:43:52;;;;;;;2.25;0.80;;;;;;;12.31;100.00;91466.75;5064843;28;19951;-79
2023/11/04 10:46:29;;;;;;;3.00;1.15;;;;;;;12.18;100.00;91445.69;5063409;28;20051;-79
2023/11/04 10:49:02;;;;;;;4.55;1.45;;;;;;;12.14;100.00;91448.00;5069143;28;20052;-78
2023/11/04 10:51:35;;;;;;;1.27;0.43;;;;;;;12.07;100.00;91423.59;5065705;28;20059;-79
2023/11/04 10:54:10;;;;;;;1.75;0.35;;;;;;;12.12;100.00;91413.28;5067400;28;20041;-79
2023/11/04 10:56:43;;;;;;;1.88;0.20;;;;;;;11.94;100.00;91384.47;5064810;28;20063;-79
2023/11/04 10:59:17;;;;;;;1.00;0.20;;;;;;;12.19;100.00;91425.88;5066084;28;20053;-78
2023/11/04 11:01:46;;;;;;;2.30;0.50;;;;;;;12.19;100.00;91428.44;5066191;28;20059;-78
2023/11/04 11:04:16;;;;;;;2.65;1.08;;;;;;;12.20;100.00;91417.88;5065599;28;20056;-79
2023/11/04 11:06:45;;;;;;;1.50;0.70;;;;;;;12.24;100.00;91434.34;5066212;28;20048;-78
2023/11/04 11:09:13;;;;;;;2.58;1.00;;;;;;;12.28;100.00;91430.19;5067909;28;20047;-79
2023/11/04 11:11:46;;;;;;;2.13;1.05;;;;;;;12.28;100.00;91399.31;5071127;28;20048;-79
2023/11/04 11:14:13;;;;;;;1.85;0.98;;;;;;;12.08;100.00;91330.69;5068953;28;20056;-78
2023/11/04 11:16:40;;;;;;;2.25;0.60;;;;;;;12.28;100.00;91375.38;5066979;28;20401;-78
2023/11/04 11:19:09;;;;;;;3.88;1.15;;;;;;;12.30;100.00;91399.03;5064794;28;20094;-78
2023/11/04 11:21:49;;;;;;;6.32;3.40;;;;;;;12.12;100.00;91357.44;5066823;28;20048;-79
2023/11/04 11:24:20;;;;;;;3.80;1.40;;;;;;;12.16;100.00;91322.41;5071627;28;20171;-79
2023/11/04 11:26:48;;;;;;;3.72;2.08;;;;;;;12.09;100.00;91334.78;5072250;28;20525;-79